createdAt,value
2018-11-13T00:01:44.054Z,99304.41
2018-11-13T00:06:49.682Z,99279.26
2018-11-13T00:09:17.777Z,99279.26
2018-11-13T00:11:45.898Z,99281.12
2018-11-13T00:14:14.049Z,99284.73
2018-11-13T00:16:42.169Z,99288.71
2018-11-13T00:19:10.275Z,99298.09
2018-11-13T00:21:38.389Z,99300.27
2018-11-13T00:24:06.562Z,99306.50
2018-11-13T00:26:34.612Z,99309.73
2018-11-13T00:29:02.721Z,99316.73
2018-11-13T00:31:30.874Z,99318.17
2018-11-13T00:33:58.955Z,99329.12
2018-11-13T00:36:27.051Z,99330.09
2018-11-13T00:38:55.235Z,99324.86
2018-11-13T00:41:23.346Z,99332.34
2018-11-13T00:43:51.477Z,99326.19
2018-11-13T00:46:19.587Z,99333.31
2018-11-13T00:48:47.690Z,99324.05
2018-11-13T00:51:15.778Z,99325.83
2018-11-13T00:53:43.863Z,99334.74
2018-11-13T00:56:11.998Z,99325.47
2018-11-13T00:58:40.087Z,99311.38
2018-11-13T01:01:08.173Z,99306.94
2018-11-13T01:03:36.249Z,99298.61
2018-11-13T01:06:04.361Z,99292.37
2018-11-13T01:08:32.458Z,99284.05
2018-11-13T01:11:00.555Z,99285.37
2018-11-13T01:13:29.096Z,99286.80
2018-11-13T01:15:56.803Z,99292.10
2018-11-13T01:18:24.913Z,99296.07
2018-11-13T01:20:53.076Z,99296.18
2018-11-13T01:23:21.189Z,99293.89
2018-11-13T01:25:49.281Z,99291.35
2018-11-13T01:28:17.366Z,99289.20
2018-11-13T01:30:45.707Z,99290.14
2018-11-13T01:33:13.798Z,99291.00
2018-11-13T01:35:41.898Z,99300.27
2018-11-13T01:38:09.995Z,99303.02
2018-11-13T01:40:38.129Z,99312.28
2018-11-13T01:43:06.255Z,99312.28
2018-11-13T01:45:34.435Z,99310.11
2018-11-13T01:48:02.580Z,99310.67
2018-11-13T01:50:30.671Z,99324.41
2018-11-13T01:52:58.788Z,99331.97
2018-11-13T01:55:26.890Z,99339.55
2018-11-13T01:57:55.015Z,99347.84
2018-11-13T02:00:23.969Z,99361.19
2018-11-13T02:02:53.268Z,99358.08
2018-11-13T02:05:22.417Z,99345.77
2018-11-13T02:07:50.959Z,99336.16
2018-11-13T02:10:19.357Z,99330.50
2018-11-13T02:12:48.786Z,99340.23
2018-11-13T02:15:17.844Z,99338.44
2018-11-13T02:17:45.971Z,99345.88
2018-11-13T02:20:15.491Z,99349.61
2018-11-13T02:22:43.739Z,99353.57
2018-11-13T02:25:13.414Z,99349.61
2018-11-13T02:27:42.086Z,99339.13
2018-11-13T02:30:12.926Z,99340.91
2018-11-13T02:32:41.556Z,99346.20
2018-11-13T02:35:10.463Z,99345.84
2018-11-13T02:37:38.587Z,99341.02
2018-11-13T02:40:06.862Z,99336.58
2018-11-13T02:42:36.139Z,99340.16
2018-11-13T02:45:05.219Z,99334.52
2018-11-13T02:47:33.331Z,99342.45
2018-11-13T02:50:01.455Z,99339.91
2018-11-13T02:52:29.574Z,99334.62
2018-11-13T02:54:57.676Z,99331.58
2018-11-13T02:57:25.819Z,99317.88
2018-11-13T02:59:53.927Z,99330.65
2018-11-13T03:02:22.090Z,99323.58
2018-11-13T03:04:50.783Z,99330.76
2018-11-13T03:07:18.919Z,99322.42
2018-11-13T03:09:47.027Z,99317.99
2018-11-13T03:12:15.122Z,99308.84
2018-11-13T03:14:43.241Z,99315.81
2018-11-13T03:17:11.385Z,99336.23
2018-11-13T03:19:39.478Z,99357.05
2018-11-13T03:22:07.579Z,99368.95
2018-11-13T03:24:35.912Z,99376.50
2018-11-13T03:27:04.050Z,99388.41
2018-11-13T03:29:32.227Z,99384.44
2018-11-13T03:32:00.374Z,99389.38
2018-11-13T03:34:28.458Z,99392.59
2018-11-13T03:36:56.567Z,99405.83
2018-11-13T03:39:24.675Z,99422.20
2018-11-13T03:41:52.880Z,99431.46
2018-11-13T03:44:21.017Z,99420.02
2018-11-13T03:46:49.140Z,99403.28
2018-11-13T03:49:17.211Z,99411.69
2018-11-13T03:51:45.247Z,99407.36
2018-11-13T03:54:13.286Z,99395.91
2018-11-13T03:56:41.367Z,99397.23
2018-11-13T03:59:09.420Z,99386.66
2018-11-13T04:01:37.480Z,99385.44
2018-11-13T04:04:11.117Z,99386.30
2018-11-13T04:06:39.151Z,99381.47
2018-11-13T04:09:09.117Z,99388.58
2018-11-13T04:11:37.249Z,99389.97
2018-11-13T04:14:05.410Z,99390.83
2018-11-13T04:16:33.471Z,99394.44
2018-11-13T04:19:01.511Z,99393.94
2018-11-13T04:21:29.538Z,99406.34
2018-11-13T04:23:57.583Z,99402.48
2018-11-13T04:26:25.860Z,99401.23
2018-11-13T04:28:53.894Z,99391.51
2018-11-13T04:31:21.937Z,99385.36
2018-11-13T04:33:50.053Z,99391.61
2018-11-13T04:36:18.185Z,99391.25
2018-11-13T04:38:46.290Z,99385.46
2018-11-13T04:41:14.374Z,99399.19
2018-11-13T04:43:42.434Z,99405.05
2018-11-13T04:46:10.527Z,99407.23
2018-11-13T04:48:38.630Z,99420.92
2018-11-13T04:51:06.683Z,99432.83
2018-11-13T04:53:34.777Z,99429.43
2018-11-13T04:56:02.899Z,99437.73
2018-11-13T04:58:30.972Z,99437.27
2018-11-13T05:00:59.038Z,99439.55
2018-11-13T05:03:27.878Z,99435.58
2018-11-13T05:05:56.010Z,99439.44
2018-11-13T05:08:24.088Z,99450.59
2018-11-13T05:10:52.144Z,99448.81
2018-11-13T05:13:20.173Z,99444.94
2018-11-13T05:15:48.210Z,99447.48
2018-11-13T05:18:16.255Z,99447.09
2018-11-13T05:20:44.328Z,99433.97
2018-11-13T05:23:12.474Z,99432.18
2018-11-13T05:25:40.495Z,99436.51
2018-11-13T05:28:08.565Z,99439.16
2018-11-13T05:30:36.631Z,99451.56
2018-11-13T05:33:04.781Z,99461.64
2018-11-13T05:35:32.848Z,99480.16
2018-11-13T05:38:00.918Z,99480.16
2018-11-13T05:40:28.987Z,99479.80
2018-11-13T05:42:57.119Z,99498.68
2018-11-13T05:45:26.109Z,99477.05
2018-11-13T05:47:54.177Z,99482.80
2018-11-13T05:50:22.219Z,99482.70
2018-11-13T05:52:51.623Z,99486.31
2018-11-13T05:55:19.694Z,99483.66
2018-11-13T05:57:47.888Z,99480.55
2018-11-13T06:00:17.474Z,99492.92
2018-11-13T06:02:45.509Z,99504.37
2018-11-13T06:05:13.949Z,99506.62
2018-11-13T06:07:42.070Z,99512.77
2018-11-13T06:10:11.002Z,99513.23
2018-11-13T06:12:39.042Z,99500.50
2018-11-13T06:15:07.584Z,99507.22
2018-11-13T06:17:35.639Z,99505.40
2018-11-13T06:20:03.882Z,99506.26
2018-11-13T06:22:32.170Z,99520.05
2018-11-13T06:25:00.247Z,99527.98
2018-11-13T06:27:28.315Z,99513.08
2018-11-13T06:29:56.392Z,99517.41
2018-11-13T06:32:24.469Z,99517.41
2018-11-13T06:34:52.499Z,99514.86
2018-11-13T06:37:20.551Z,99520.61
2018-11-13T06:39:48.594Z,99525.44
2018-11-13T06:42:16.625Z,99536.88
2018-11-13T06:44:44.715Z,99540.95
2018-11-13T06:47:12.766Z,99546.24
2018-11-13T06:49:40.848Z,99553.32
2018-11-13T06:52:08.895Z,99550.31
2018-11-13T06:54:54.803Z,99555.60
2018-11-13T06:57:22.942Z,99559.08
2018-11-13T06:59:51.059Z,99557.39
2018-11-13T07:02:19.186Z,99563.14
2018-11-13T07:04:47.347Z,99563.24
2018-11-13T07:07:15.386Z,99566.25
2018-11-13T07:09:43.426Z,99565.03
2018-11-13T07:12:11.486Z,99571.64
2018-11-13T07:14:39.531Z,99580.08
2018-11-13T07:17:07.659Z,99576.94
2018-11-13T07:19:35.739Z,99578.35
2018-11-13T07:22:03.770Z,99581.86
2018-11-13T07:24:31.944Z,99586.75
2018-11-13T07:27:00.144Z,99583.74
2018-11-13T07:29:28.270Z,99588.57
2018-11-13T07:31:56.440Z,99595.19
2018-11-13T07:34:24.835Z,99602.63
2018-11-13T07:36:53.573Z,99607.91
2018-11-13T07:39:21.912Z,99609.73
2018-11-13T07:41:50.023Z,99612.73
2018-11-13T07:44:18.212Z,99610.86
2018-11-13T07:46:46.441Z,99616.61
2018-11-13T07:49:14.596Z,99620.02
2018-11-13T07:51:42.795Z,99629.67
2018-11-13T07:54:10.930Z,99629.08
2018-11-13T07:56:39.957Z,99633.61
2018-11-13T07:59:08.201Z,99629.74
2018-11-13T08:01:36.334Z,99628.52
2018-11-13T08:04:04.680Z,99631.62
2018-11-13T08:06:32.991Z,99630.67
2018-11-13T08:09:01.094Z,99640.42
2018-11-13T08:11:29.238Z,99649.09
2018-11-13T08:13:57.331Z,99641.55
2018-11-13T08:16:25.702Z,99649.85
2018-11-13T08:18:53.809Z,99651.47
2018-11-13T08:21:21.788Z,99659.88
2018-11-13T08:23:49.930Z,99662.33
2018-11-13T08:26:18.244Z,99667.41
2018-11-13T08:28:46.456Z,99670.36
2018-11-13T08:31:14.508Z,99668.47
2018-11-13T08:33:43.038Z,99668.83
2018-11-13T08:36:11.236Z,99671.88
2018-11-13T08:38:39.390Z,99675.75
2018-11-13T08:41:07.984Z,99680.45
2018-11-13T08:43:36.158Z,99678.95
2018-11-13T08:46:04.596Z,99685.48
2018-11-13T08:48:32.751Z,99689.34
2018-11-13T08:51:00.858Z,99685.84
2018-11-13T08:53:28.992Z,99695.41
2018-11-13T08:55:57.146Z,99692.36
2018-11-13T08:58:25.374Z,99692.19
2018-11-13T09:00:53.598Z,99696.63
2018-11-13T09:03:21.772Z,99707.48
2018-11-13T09:05:49.938Z,99696.98
2018-11-13T09:08:18.088Z,99705.33
2018-11-13T09:10:46.238Z,99701.25
2018-11-13T09:13:14.667Z,99709.13
2018-11-13T09:15:42.807Z,99713.01
2018-11-13T09:18:11.075Z,99712.14
2018-11-13T09:20:39.256Z,99711.58
2018-11-13T09:23:07.448Z,99708.07
2018-11-13T09:25:35.621Z,99709.39
2018-11-13T09:28:03.789Z,99709.80
2018-11-13T09:30:32.099Z,99714.13
2018-11-13T09:33:00.047Z,99712.23
2018-11-13T09:35:28.231Z,99721.60
2018-11-13T09:37:56.369Z,99723.19
2018-11-13T09:40:24.527Z,99724.80
2018-11-13T09:42:52.755Z,99719.51
2018-11-13T09:45:20.913Z,99718.55
2018-11-13T09:47:49.197Z,99718.45
2018-11-13T09:50:18.759Z,99725.83
2018-11-13T09:52:48.558Z,99721.09
2018-11-13T09:55:18.732Z,99728.58
2018-11-13T09:57:47.734Z,99733.78
2018-11-13T10:00:18.742Z,99734.53
2018-11-13T10:02:51.618Z,99733.11
2018-11-13T10:05:20.171Z,99732.25
2018-11-13T10:07:48.855Z,99738.30
2018-11-13T10:10:17.022Z,99735.19
2018-11-13T10:12:45.086Z,99734.63
2018-11-13T10:15:16.101Z,99736.61
2018-11-13T10:17:44.316Z,99739.52
2018-11-13T10:20:13.686Z,99737.52
2018-11-13T10:22:43.002Z,99732.88
2018-11-13T10:25:11.973Z,99739.50
2018-11-13T10:27:40.529Z,99743.84
2018-11-13T10:30:10.906Z,99747.35
2018-11-13T10:32:39.187Z,99742.62
2018-11-13T10:35:08.451Z,99745.73
2018-11-13T10:37:36.939Z,99748.38
2018-11-13T10:40:05.845Z,99743.08
2018-11-13T10:42:33.854Z,99738.64
2018-11-13T10:45:01.913Z,99737.71
2018-11-13T10:47:29.947Z,99753.52
2018-11-13T10:49:58.035Z,99750.86
2018-11-13T10:52:26.374Z,99748.31
2018-11-13T10:54:54.422Z,99754.63
2018-11-13T10:57:22.827Z,99749.22
2018-11-13T10:59:51.088Z,99750.09
2018-11-13T11:02:24.446Z,99744.28
2018-11-13T11:04:53.261Z,99743.05
2018-11-13T11:07:21.395Z,99736.61
2018-11-13T11:09:49.414Z,99747.76
2018-11-13T11:12:17.446Z,99746.98
2018-11-13T11:14:45.511Z,99743.66
2018-11-13T11:17:13.539Z,99735.81
2018-11-13T11:19:41.633Z,99748.76
2018-11-13T11:22:09.679Z,99743.06
2018-11-13T11:24:37.699Z,99746.97
2018-11-13T11:27:05.726Z,99750.55
2018-11-13T11:29:33.758Z,99753.20
2018-11-13T11:32:01.803Z,99755.39
2018-11-13T11:34:29.822Z,99762.02
2018-11-13T11:36:57.847Z,99754.06
2018-11-13T11:39:25.987Z,99749.98
2018-11-13T11:41:54.016Z,99750.88
2018-11-13T11:44:22.078Z,99756.48
2018-11-13T11:46:50.087Z,99765.08
2018-11-13T11:49:18.118Z,99762.00
2018-11-13T11:51:46.146Z,99752.61
2018-11-13T11:54:14.248Z,99745.80
2018-11-13T11:56:42.327Z,99761.04
2018-11-13T11:59:10.387Z,99759.97
2018-11-13T12:01:38.426Z,99757.96
2018-11-13T12:04:06.488Z,99740.14
2018-11-13T12:06:34.534Z,99755.84
2018-11-13T12:09:02.560Z,99762.27
2018-11-13T12:11:30.594Z,99740.97
2018-11-13T12:13:58.626Z,99757.99
2018-11-13T12:16:26.661Z,99760.04
2018-11-13T12:18:54.708Z,99779.84
2018-11-13T12:21:22.736Z,99762.88
2018-11-13T12:23:50.755Z,99774.23
2018-11-13T12:26:19.095Z,99767.20
2018-11-13T12:28:47.114Z,99771.58
2018-11-13T12:31:15.138Z,99754.91
2018-11-13T12:33:43.162Z,99773.48
2018-11-13T12:36:11.203Z,99773.84
2018-11-13T12:38:39.327Z,99784.97
2018-11-13T12:41:07.394Z,99777.83
2018-11-13T12:43:35.501Z,99779.16
2018-11-13T12:46:03.547Z,99796.80
2018-11-13T12:48:31.636Z,99797.73
2018-11-13T12:51:04.794Z,99792.42
2018-11-13T12:53:33.366Z,99801.25
2018-11-13T12:56:01.860Z,99792.06
2018-11-13T12:58:30.694Z,99794.36
2018-11-13T13:00:58.704Z,99798.62
2018-11-13T13:03:26.729Z,99807.70
2018-11-13T13:05:54.794Z,99805.16
2018-11-13T13:08:22.848Z,99818.43
2018-11-13T13:10:50.903Z,99819.39
2018-11-13T13:13:18.978Z,99812.77
2018-11-13T13:15:47.048Z,99824.34
2018-11-13T13:18:15.103Z,99827.57
2018-11-13T13:20:43.130Z,99825.85
2018-11-13T13:23:11.262Z,99830.69
2018-11-13T13:25:39.328Z,99830.44
2018-11-13T13:28:07.418Z,99826.17
2018-11-13T13:30:35.485Z,99835.92
2018-11-13T13:33:03.536Z,99831.47
2018-11-13T13:35:50.354Z,99839.08
2018-11-13T13:38:18.391Z,99840.47
2018-11-13T13:40:47.845Z,99841.19
2018-11-13T13:43:16.351Z,99847.89
2018-11-13T13:45:45.342Z,99833.30
2018-11-13T13:48:13.382Z,99851.51
2018-11-13T13:50:41.402Z,99864.41
2018-11-13T13:53:10.471Z,99857.38
2018-11-13T13:55:38.615Z,99852.65
2018-11-13T13:58:06.858Z,99868.20
2018-11-13T14:00:34.945Z,99860.35
2018-11-13T14:03:02.948Z,99869.24
2018-11-13T14:05:30.994Z,99872.39
2018-11-13T14:07:59.040Z,99884.44
2018-11-13T14:10:27.063Z,99877.91
2018-11-13T14:12:55.098Z,99882.45
2018-11-13T14:15:23.186Z,99890.88
2018-11-13T14:17:51.169Z,99898.47
2018-11-13T14:20:20.262Z,99897.81
2018-11-13T14:22:48.323Z,99899.25
2018-11-13T14:25:16.392Z,99901.14
2018-11-13T14:27:44.718Z,99903.89
2018-11-13T14:30:17.540Z,99906.65
2018-11-13T14:32:46.423Z,99913.75
2018-11-13T14:35:14.801Z,99928.43
2018-11-13T14:37:42.907Z,99927.57
2018-11-13T14:40:15.663Z,99932.22
2018-11-13T14:42:44.435Z,99936.30
2018-11-13T14:45:12.506Z,99941.34
2018-11-13T14:47:41.502Z,99942.16
2018-11-13T14:52:38.058Z,99952.61
2018-11-13T14:55:08.410Z,99956.19
2018-11-13T14:57:36.419Z,99965.17
2018-11-13T15:00:05.795Z,99973.59
2018-11-13T15:02:33.842Z,99975.02
2018-11-13T15:05:02.023Z,99979.09
2018-11-13T15:07:30.083Z,99983.99
2018-11-13T15:09:58.174Z,99989.39
2018-11-13T15:12:26.227Z,99991.28
2018-11-13T15:14:54.258Z,99986.94
2018-11-13T15:17:22.380Z,99991.02
2018-11-13T15:19:50.433Z,99995.95
2018-11-13T15:22:18.569Z,100003.97
2018-11-13T15:24:46.898Z,100006.35
2018-11-13T15:27:14.947Z,100013.08
2018-11-13T15:29:43.012Z,100018.47
2018-11-13T15:32:11.022Z,100015.83
2018-11-13T15:34:39.139Z,100024.34
2018-11-13T15:37:07.251Z,100029.23
2018-11-13T15:39:35.283Z,100034.64
2018-11-13T15:42:03.386Z,100032.48
2018-11-13T15:44:31.484Z,100045.34
2018-11-13T15:46:59.503Z,100045.52
2018-11-13T15:49:27.539Z,100048.55
2018-11-13T15:51:55.702Z,100058.41
2018-11-13T15:54:23.732Z,100048.73
2018-11-13T15:56:51.879Z,100051.02
2018-11-13T15:59:20.012Z,100057.64
2018-11-13T16:01:48.020Z,100051.57
2018-11-13T16:04:16.107Z,100063.13
2018-11-13T16:06:44.260Z,100061.87
2018-11-13T16:09:12.294Z,100068.13
2018-11-13T16:11:40.367Z,100067.36
2018-11-13T16:14:08.426Z,100076.27
2018-11-13T16:16:36.454Z,100084.68
2018-11-13T16:19:04.578Z,100086.09
2018-11-13T16:21:32.639Z,100082.77
2018-11-13T16:24:00.646Z,100090.72
2018-11-13T16:26:28.664Z,100093.09
2018-11-13T16:28:56.687Z,100101.97
2018-11-13T16:31:24.768Z,100109.14
2018-11-13T16:33:52.758Z,100111.89
2018-11-13T16:36:20.989Z,100111.98
2018-11-13T16:38:49.015Z,100107.73
2018-11-13T16:41:17.094Z,100107.82
2018-11-13T16:43:45.167Z,100114.04
2018-11-13T16:46:13.210Z,100117.16
2018-11-13T16:48:41.542Z,100113.36
2018-11-13T16:51:09.614Z,100125.74
2018-11-13T16:53:43.012Z,100128.98
2018-11-13T16:56:10.974Z,100130.39
2018-11-13T16:58:39.058Z,100130.45
2018-11-13T17:01:07.213Z,100130.08
2018-11-13T17:03:35.407Z,100131.41
2018-11-13T17:06:03.444Z,100135.47
2018-11-13T17:08:31.455Z,100132.45
2018-11-13T17:10:59.568Z,100137.34
2018-11-13T17:13:27.646Z,100135.62
2018-11-13T17:15:55.685Z,100137.86
2018-11-13T17:18:23.774Z,100143.16
2018-11-13T17:20:51.859Z,100141.92
2018-11-13T17:23:19.984Z,100143.34
2018-11-13T17:25:48.063Z,100148.55
2018-11-13T17:28:16.070Z,100151.28
2018-11-13T17:30:44.143Z,100154.02
2018-11-13T17:33:12.254Z,100153.56
2018-11-13T17:35:40.494Z,100158.95
2018-11-13T17:38:08.628Z,100164.62
2018-11-13T17:40:37.315Z,100160.27
2018-11-13T17:43:06.485Z,100166.03
2018-11-13T17:45:35.774Z,100167.36
2018-11-13T17:48:03.883Z,100166.03
2018-11-13T17:50:33.211Z,100163.84
2018-11-13T17:53:01.407Z,100168.77
2018-11-13T17:55:29.511Z,100170.92
2018-11-13T17:57:59.174Z,100171.88
2018-11-13T18:00:31.172Z,100174.61
2018-11-13T18:02:59.554Z,100176.80
2018-11-13T18:05:28.067Z,100186.07
2018-11-13T18:07:57.209Z,100183.88
2018-11-13T18:10:25.691Z,100188.31
2018-11-13T18:12:53.720Z,100186.99
2018-11-13T18:15:23.035Z,100190.59
2018-11-13T18:17:51.347Z,100187.95
2018-11-13T18:20:20.839Z,100187.54
2018-11-13T18:22:48.931Z,100188.03
2018-11-13T18:25:16.976Z,100192.83
2018-11-13T18:27:47.421Z,100191.14
2018-11-13T18:30:24.279Z,100192.46
2018-11-13T18:32:52.739Z,100188.58
2018-11-13T18:35:22.203Z,100190.36
2018-11-13T18:37:51.045Z,100196.98
2018-11-13T18:40:20.028Z,100196.16
2018-11-13T18:42:49.051Z,100197.84
2018-11-13T18:45:27.070Z,100197.48
2018-11-13T18:47:55.166Z,100197.07
2018-11-13T18:50:25.577Z,100201.05
2018-11-13T18:52:53.663Z,100200.18
2018-11-13T18:55:21.770Z,100209.77
2018-11-13T18:57:49.855Z,100206.80
2018-11-13T19:00:25.514Z,100208.62
2018-11-13T19:02:53.561Z,100202.14
2018-11-13T19:05:22.168Z,100206.05
2018-11-13T19:07:50.322Z,100206.52
2018-11-13T19:10:26.749Z,100213.13
2018-11-13T19:12:56.048Z,100221.54
2018-11-13T19:15:24.112Z,100220.13
2018-11-13T19:17:52.672Z,100222.69
2018-11-13T19:20:21.740Z,100221.86
2018-11-13T19:22:49.710Z,100233.28
2018-11-13T19:25:19.209Z,100232.81
2018-11-13T19:27:47.806Z,100236.42
2018-11-13T19:30:17.046Z,100228.07
2018-11-13T19:32:45.075Z,100233.86
2018-11-13T19:35:13.627Z,100234.31
2018-11-13T19:37:41.812Z,100237.42
2018-11-13T19:40:12.466Z,100237.05
2018-11-13T19:42:40.564Z,100241.48
2018-11-13T19:45:08.986Z,100244.13
2018-11-13T19:47:37.781Z,100242.89
2018-11-13T19:50:07.534Z,100248.64
2018-11-13T19:52:35.619Z,100250.47
2018-11-13T19:55:03.850Z,100254.03
2018-11-13T19:57:31.946Z,100250.60
2018-11-13T19:59:59.994Z,100261.59
2018-11-13T20:05:18.215Z,100259.58
2018-11-13T20:07:46.446Z,100264.41
2018-11-13T20:10:17.417Z,100264.96
2018-11-13T20:12:46.810Z,100262.31
2018-11-13T20:15:15.263Z,100268.93
2018-11-13T20:17:43.396Z,100272.50
2018-11-13T20:20:14.988Z,100272.13
2018-11-13T20:22:43.538Z,100273.45
2018-11-13T20:25:20.158Z,100275.14
2018-11-13T20:27:48.225Z,100277.42
2018-11-13T20:30:26.503Z,100284.58
2018-11-13T20:32:54.740Z,100286.77
2018-11-13T20:35:22.968Z,100276.64
2018-11-13T20:37:51.634Z,100282.39
2018-11-13T20:40:20.931Z,100285.03
2018-11-13T20:42:50.259Z,100288.26
2018-11-13T20:45:18.436Z,100287.77
2018-11-13T20:47:46.515Z,100286.07
2018-11-13T20:50:16.214Z,100286.16
2018-11-13T20:52:44.387Z,100291.91
2018-11-13T20:55:12.610Z,100296.83
2018-11-13T20:57:40.763Z,100297.74
2018-11-13T21:00:12.537Z,100299.56
2018-11-13T21:02:40.555Z,100297.91
2018-11-13T21:05:08.734Z,100296.12
2018-11-13T21:07:37.114Z,100297.13
2018-11-13T21:10:07.183Z,100304.61
2018-11-13T21:12:35.250Z,100296.34
2018-11-13T21:15:03.395Z,100304.78
2018-11-13T21:17:31.622Z,100299.94
2018-11-13T21:19:59.558Z,100295.19
2018-11-13T21:22:27.639Z,100297.05
2018-11-13T21:24:55.823Z,100297.05
2018-11-13T21:27:23.875Z,100303.30
2018-11-13T21:29:52.088Z,100303.84
2018-11-13T21:32:20.185Z,100296.44
2018-11-13T21:34:48.291Z,100305.78
2018-11-13T21:37:16.437Z,100308.51
2018-11-13T21:39:44.446Z,100303.30
2018-11-13T21:42:12.490Z,100307.73
2018-11-13T21:44:41.511Z,100306.48
2018-11-13T21:47:09.601Z,100307.02
2018-11-13T21:49:37.784Z,100305.78
2018-11-13T21:52:05.816Z,100306.27
2018-11-13T21:54:33.874Z,100302.84
2018-11-13T21:57:01.915Z,100305.57
2018-11-13T21:59:29.982Z,100309.59
2018-11-13T22:01:58.094Z,100307.86
2018-11-13T22:04:26.180Z,100311.91
2018-11-13T22:06:54.238Z,100310.20
2018-11-13T22:09:22.327Z,100314.71
2018-11-13T22:11:50.473Z,100310.83
2018-11-13T22:14:18.650Z,100313.59
2018-11-13T22:16:46.695Z,100311.03
2018-11-13T22:19:14.689Z,100313.68
2018-11-13T22:21:42.766Z,100317.27
2018-11-13T22:24:10.820Z,100309.00
2018-11-13T22:26:38.901Z,100309.50
2018-11-13T22:29:07.068Z,100306.44
2018-11-13T22:31:35.042Z,100314.00
2018-11-13T22:34:03.154Z,100314.95
2018-11-13T22:36:31.211Z,100321.14
2018-11-13T22:38:59.336Z,100320.36
2018-11-13T22:41:27.331Z,100324.82
2018-11-13T22:43:55.415Z,100328.37
2018-11-13T22:46:23.488Z,100328.45
2018-11-13T22:48:51.585Z,100337.71
2018-11-13T22:51:19.647Z,100338.66
2018-11-13T22:53:47.731Z,100332.13
2018-11-13T22:56:15.887Z,100341.84
2018-11-13T22:58:43.991Z,100342.30
2018-11-13T23:01:12.171Z,100337.08
2018-11-13T23:03:40.150Z,100343.69
2018-11-13T23:06:08.223Z,100340.19
2018-11-13T23:08:36.291Z,100341.99
2018-11-13T23:11:09.714Z,100339.80
2018-11-13T23:13:37.775Z,100338.11
2018-11-13T23:16:06.264Z,100335.51
2018-11-13T23:18:34.338Z,100336.45
2018-11-13T23:21:02.446Z,100339.47
2018-11-13T23:23:30.526Z,100340.88
2018-11-13T23:25:58.586Z,100340.42
2018-11-13T23:28:26.730Z,100342.20
2018-11-13T23:30:54.762Z,100336.08
2018-11-13T23:33:22.831Z,100337.40
2018-11-13T23:35:51.676Z,100336.98
2018-11-13T23:38:19.748Z,100349.83
2018-11-13T23:40:47.770Z,100353.80
2018-11-13T23:43:15.807Z,100366.55
2018-11-13T23:45:43.850Z,100365.28
2018-11-13T23:48:11.875Z,100367.92
2018-11-13T23:50:39.945Z,100370.19
2018-11-13T23:53:08.099Z,100365.77
2018-11-13T23:55:36.188Z,100367.17
2018-11-13T23:58:04.250Z,100361.88
